sensor_id;sensor_type;location;lat;lon;timestamp;P1;durP1;ratioP1;P2;durP2;ratioP2
74624;SDS011;63131;52.298;8.056;2023-09-07T00:01:46;8.68;;;2.70;;
74624;SDS011;63131;52.298;8.056;2023-09-07T00:05:10;6.07;;;2.53;;
74624;SDS011;63131;52.298;8.056;2023-09-07T00:08:34;6.43;;;2.40;;
74624;SDS011;63131;52.298;8.056;2023-09-07T00:11:58;6.40;;;2.30;;
74624;SDS011;63131;52.298;8.056;2023-09-07T00:15:22;6.05;;;2.20;;
74624;SDS011;63131;52.298;8.056;2023-09-07T00:18:46;7.57;;;2.33;;
74624;SDS011;63131;52.298;8.056;2023-09-07T00:22:14;6.47;;;2.60;;
74624;SDS011;63131;52.298;8.056;2023-09-07T00:25:38;6.75;;;2.97;;
74624;SDS011;63131;52.298;8.056;2023-09-07T00:29:01;7.40;;;2.75;;
74624;SDS011;63131;52.298;8.056;2023-09-07T00:32:26;8.43;;;2.83;;
74624;SDS011;63131;52.298;8.056;2023-09-07T00:35:50;6.78;;;2.38;;
74624;SDS011;63131;52.298;8.056;2023-09-07T00:39:14;5.95;;;2.15;;
74624;SDS011;63131;52.298;8.056;2023-09-07T00:42:29;8.05;;;2.63;;
74624;SDS011;63131;52.298;8.056;2023-09-07T00:45:53;10.48;;;2.67;;
74624;SDS011;63131;52.298;8.056;2023-09-07T00:49:16;7.40;;;2.40;;
74624;SDS011;63131;52.298;8.056;2023-09-07T00:52:44;7.35;;;2.50;;
74624;SDS011;63131;52.298;8.056;2023-09-07T00:56:10;9.20;;;2.70;;
74624;SDS011;63131;52.298;8.056;2023-09-07T00:59:34;6.88;;;2.65;;
74624;SDS011;63131;52.298;8.056;2023-09-07T01:02:59;7.32;;;2.50;;
74624;SDS011;63131;52.298;8.056;2023-09-07T01:06:27;8.05;;;3.03;;
74624;SDS011;63131;52.298;8.056;2023-09-07T01:10:05;6.45;;;2.50;;
74624;SDS011;63131;52.298;8.056;2023-09-07T01:13:40;7.03;;;2.58;;
74624;SDS011;63131;52.298;8.056;2023-09-07T01:17:04;7.32;;;2.38;;
74624;SDS011;63131;52.298;8.056;2023-09-07T01:20:28;6.65;;;2.83;;
74624;SDS011;63131;52.298;8.056;2023-09-07T01:23:57;8.35;;;2.58;;
74624;SDS011;63131;52.298;8.056;2023-09-07T01:27:21;7.55;;;2.60;;
74624;SDS011;63131;52.298;8.056;2023-09-07T01:30:46;6.65;;;2.30;;
74624;SDS011;63131;52.298;8.056;2023-09-07T01:34:10;7.32;;;2.40;;
74624;SDS011;63131;52.298;8.056;2023-09-07T01:37:35;6.63;;;2.35;;
74624;SDS011;63131;52.298;8.056;2023-09-07T01:40:59;6.72;;;2.22;;
74624;SDS011;63131;52.298;8.056;2023-09-07T01:44:23;6.00;;;2.20;;
74624;SDS011;63131;52.298;8.056;2023-09-07T01:47:48;7.78;;;2.30;;
74624;SDS011;63131;52.298;8.056;2023-09-07T01:51:12;7.20;;;2.80;;
74624;SDS011;63131;52.298;8.056;2023-09-07T01:54:36;7.40;;;2.55;;
74624;SDS011;63131;52.298;8.056;2023-09-07T01:58:00;7.15;;;2.38;;
74624;SDS011;63131;52.298;8.056;2023-09-07T02:01:25;6.13;;;2.20;;
74624;SDS011;63131;52.298;8.056;2023-09-07T02:04:49;6.78;;;2.67;;
74624;SDS011;63131;52.298;8.056;2023-09-07T02:08:13;7.30;;;2.72;;
74624;SDS011;63131;52.298;8.056;2023-09-07T02:11:37;7.25;;;2.38;;
74624;SDS011;63131;52.298;8.056;2023-09-07T02:15:03;7.68;;;2.90;;
74624;SDS011;63131;52.298;8.056;2023-09-07T02:18:28;6.63;;;2.38;;
74624;SDS011;63131;52.298;8.056;2023-09-07T02:21:52;7.85;;;2.50;;
74624;SDS011;63131;52.298;8.056;2023-09-07T02:25:16;6.63;;;2.72;;
74624;SDS011;63131;52.298;8.056;2023-09-07T02:28:40;7.05;;;2.78;;
74624;SDS011;63131;52.298;8.056;2023-09-07T02:32:04;7.32;;;3.00;;
74624;SDS011;63131;52.298;8.056;2023-09-07T02:35:29;8.48;;;3.13;;
74624;SDS011;63131;52.298;8.056;2023-09-07T02:38:53;7.65;;;2.80;;
74624;SDS011;63131;52.298;8.056;2023-09-07T02:42:16;7.00;;;2.78;;
74624;SDS011;63131;52.298;8.056;2023-09-07T02:48:48;8.52;;;3.15;;
74624;SDS011;63131;52.298;8.056;2023-09-07T02:52:08;8.02;;;2.83;;
74624;SDS011;63131;52.298;8.056;2023-09-07T02:55:32;7.90;;;3.17;;
74624;SDS011;63131;52.298;8.056;2023-09-07T02:58:56;7.20;;;2.88;;
74624;SDS011;63131;52.298;8.056;2023-09-07T03:02:11;7.28;;;2.83;;
74624;SDS011;63131;52.298;8.056;2023-09-07T03:05:36;6.88;;;2.80;;
74624;SDS011;63131;52.298;8.056;2023-09-07T03:09:00;7.63;;;3.40;;
74624;SDS011;63131;52.298;8.056;2023-09-07T03:11:27;8.07;;;3.22;;
74624;SDS011;63131;52.298;8.056;2023-09-07T03:14:44;7.47;;;3.00;;
74624;SDS011;63131;52.298;8.056;2023-09-07T03:18:08;9.30;;;3.88;;
74624;SDS011;63131;52.298;8.056;2023-09-07T03:21:32;8.02;;;2.80;;
74624;SDS011;63131;52.298;8.056;2023-09-07T03:24:56;7.50;;;3.30;;
74624;SDS011;63131;52.298;8.056;2023-09-07T03:28:20;7.80;;;3.13;;
74624;SDS011;63131;52.298;8.056;2023-09-07T03:31:44;6.82;;;3.10;;
74624;SDS011;63131;52.298;8.056;2023-09-07T03:35:08;8.65;;;3.75;;
74624;SDS011;63131;52.298;8.056;2023-09-07T03:38:34;7.78;;;3.10;;
74624;SDS011;63131;52.298;8.056;2023-09-07T03:41:58;8.52;;;3.70;;
74624;SDS011;63131;52.298;8.056;2023-09-07T03:45:08;8.15;;;3.30;;
74624;SDS011;63131;52.298;8.056;2023-09-07T03:48:32;6.75;;;3.10;;
74624;SDS011;63131;52.298;8.056;2023-09-07T03:51:21;7.70;;;3.28;;
74624;SDS011;63131;52.298;8.056;2023-09-07T03:54:37;9.43;;;3.30;;
74624;SDS011;63131;52.298;8.056;2023-09-07T03:58:11;7.82;;;3.60;;
74624;SDS011;63131;52.298;8.056;2023-09-07T04:05:01;8.02;;;3.58;;
74624;SDS011;63131;52.298;8.056;2023-09-07T04:08:25;7.40;;;3.38;;
74624;SDS011;63131;52.298;8.056;2023-09-07T04:11:49;8.85;;;3.53;;
74624;SDS011;63131;52.298;8.056;2023-09-07T04:15:16;9.68;;;3.83;;
74624;SDS011;63131;52.298;8.056;2023-09-07T04:18:42;8.82;;;3.80;;
74624;SDS011;63131;52.298;8.056;2023-09-07T04:22:06;10.02;;;4.05;;
74624;SDS011;63131;52.298;8.056;2023-09-07T04:25:30;8.15;;;3.60;;
74624;SDS011;63131;52.298;8.056;2023-09-07T04:28:55;8.30;;;3.30;;
74624;SDS011;63131;52.298;8.056;2023-09-07T04:32:20;8.25;;;3.10;;
74624;SDS011;63131;52.298;8.056;2023-09-07T04:35:44;8.80;;;3.80;;
74624;SDS011;63131;52.298;8.056;2023-09-07T04:39:08;7.47;;;3.53;;
74624;SDS011;63131;52.298;8.056;2023-09-07T04:42:33;7.72;;;3.50;;
74624;SDS011;63131;52.298;8.056;2023-09-07T04:45:56;8.75;;;3.50;;
74624;SDS011;63131;52.298;8.056;2023-09-07T04:49:21;8.05;;;3.72;;
74624;SDS011;63131;52.298;8.056;2023-09-07T04:52:45;8.00;;;3.63;;
74624;SDS011;63131;52.298;8.056;2023-09-07T04:56:09;8.02;;;3.17;;
74624;SDS011;63131;52.298;8.056;2023-09-07T04:59:33;8.85;;;3.78;;
74624;SDS011;63131;52.298;8.056;2023-09-07T05:02:57;7.68;;;3.72;;
74624;SDS011;63131;52.298;8.056;2023-09-07T05:06:21;8.77;;;3.35;;
74624;SDS011;63131;52.298;8.056;2023-09-07T05:09:45;8.55;;;3.78;;
74624;SDS011;63131;52.298;8.056;2023-09-07T05:12:52;9.95;;;4.28;;
74624;SDS011;63131;52.298;8.056;2023-09-07T05:15:23;9.13;;;3.90;;
74624;SDS011;63131;52.298;8.056;2023-09-07T05:18:47;8.82;;;3.72;;
74624;SDS011;63131;52.298;8.056;2023-09-07T05:22:14;7.55;;;3.17;;
74624;SDS011;63131;52.298;8.056;2023-09-07T05:25:47;13.80;;;3.60;;
74624;SDS011;63131;52.298;8.056;2023-09-07T05:29:11;8.07;;;3.53;;
74624;SDS011;63131;52.298;8.056;2023-09-07T05:32:36;9.40;;;3.60;;
74624;SDS011;63131;52.298;8.056;2023-09-07T05:35:11;8.18;;;4.10;;
74624;SDS011;63131;52.298;8.056;2023-09-07T05:38:35;11.18;;;4.00;;
74624;SDS011;63131;52.298;8.056;2023-09-07T05:41:51;9.38;;;4.15;;
74624;SDS011;63131;52.298;8.056;2023-09-07T05:44:51;8.57;;;3.67;;
74624;SDS011;63131;52.298;8.056;2023-09-07T05:47:19;8.82;;;3.90;;
74624;SDS011;63131;52.298;8.056;2023-09-07T05:49:51;10.65;;;4.72;;
74624;SDS011;63131;52.298;8.056;2023-09-07T05:52:33;8.88;;;3.85;;
74624;SDS011;63131;52.298;8.056;2023-09-07T05:55:26;9.60;;;4.20;;
74624;SDS011;63131;52.298;8.056;2023-09-07T05:57:54;9.32;;;4.85;;
74624;SDS011;63131;52.298;8.056;2023-09-07T06:00:20;11.70;;;4.65;;
74624;SDS011;63131;52.298;8.056;2023-09-07T06:02:45;9.98;;;4.45;;
74624;SDS011;63131;52.298;8.056;2023-09-07T06:05:12;11.63;;;4.60;;
74624;SDS011;63131;52.298;8.056;2023-09-07T06:08:35;9.93;;;4.82;;
74624;SDS011;63131;52.298;8.056;2023-09-07T06:11:01;9.02;;;4.45;;
74624;SDS011;63131;52.298;8.056;2023-09-07T06:13:26;10.38;;;4.55;;
74624;SDS011;63131;52.298;8.056;2023-09-07T06:15:52;10.85;;;5.07;;
74624;SDS011;63131;52.298;8.056;2023-09-07T06:18:17;9.82;;;4.43;;
74624;SDS011;63131;52.298;8.056;2023-09-07T06:20:43;9.45;;;4.35;;
74624;SDS011;63131;52.298;8.056;2023-09-07T06:23:08;10.77;;;4.70;;
74624;SDS011;63131;52.298;8.056;2023-09-07T06:25:34;11.10;;;5.05;;
74624;SDS011;63131;52.298;8.056;2023-09-07T06:28:00;10.98;;;4.75;;
74624;SDS011;63131;52.298;8.056;2023-09-07T06:30:25;10.40;;;5.07;;
74624;SDS011;63131;52.298;8.056;2023-09-07T06:32:50;10.82;;;4.63;;
74624;SDS011;63131;52.298;8.056;2023-09-07T06:35:18;15.07;;;5.07;;
74624;SDS011;63131;52.298;8.056;2023-09-07T06:37:46;19.08;;;6.13;;
74624;SDS011;63131;52.298;8.056;2023-09-07T06:40:59;12.95;;;4.60;;
74624;SDS011;63131;52.298;8.056;2023-09-07T06:44:23;9.43;;;4.22;;
74624;SDS011;63131;52.298;8.056;2023-09-07T06:47:49;9.63;;;4.88;;
74624;SDS011;63131;52.298;8.056;2023-09-07T06:51:13;8.95;;;4.30;;
74624;SDS011;63131;52.298;8.056;2023-09-07T06:54:38;9.43;;;4.05;;
74624;SDS011;63131;52.298;8.056;2023-09-07T06:58:01;9.18;;;3.90;;
74624;SDS011;63131;52.298;8.056;2023-09-07T07:01:26;8.70;;;4.25;;
74624;SDS011;63131;52.298;8.056;2023-09-07T07:04:50;9.88;;;4.25;;
74624;SDS011;63131;52.298;8.056;2023-09-07T07:08:23;9.30;;;4.10;;
74624;SDS011;63131;52.298;8.056;2023-09-07T07:11:47;9.20;;;4.10;;
74624;SDS011;63131;52.298;8.056;2023-09-07T07:15:11;9.05;;;3.78;;
74624;SDS011;63131;52.298;8.056;2023-09-07T07:18:35;9.35;;;4.10;;
74624;SDS011;63131;52.298;8.056;2023-09-07T07:21:59;9.65;;;3.35;;
74624;SDS011;63131;52.298;8.056;2023-09-07T07:25:23;8.63;;;3.47;;
74624;SDS011;63131;52.298;8.056;2023-09-07T07:28:47;7.80;;;3.30;;
74624;SDS011;63131;52.298;8.056;2023-09-07T07:32:48;8.50;;;3.72;;
74624;SDS011;63131;52.298;8.056;2023-09-07T07:36:13;9.15;;;3.50;;
74624;SDS011;63131;52.298;8.056;2023-09-07T07:39:37;8.00;;;3.70;;
74624;SDS011;63131;52.298;8.056;2023-09-07T07:42:54;9.40;;;3.72;;
74624;SDS011;63131;52.298;8.056;2023-09-07T07:45:38;8.45;;;3.38;;
74624;SDS011;63131;52.298;8.056;2023-09-07T07:48:59;8.00;;;3.42;;
74624;SDS011;63131;52.298;8.056;2023-09-07T07:52:13;8.73;;;4.07;;
74624;SDS011;63131;52.298;8.056;2023-09-07T07:55:13;9.48;;;3.35;;
74624;SDS011;63131;52.298;8.056;2023-09-07T07:57:55;7.93;;;3.53;;
74624;SDS011;63131;52.298;8.056;2023-09-07T08:00:21;8.30;;;3.58;;
74624;SDS011;63131;52.298;8.056;2023-09-07T08:03:43;15.93;;;3.85;;
74624;SDS011;63131;52.298;8.056;2023-09-07T08:06:09;8.80;;;3.70;;
74624;SDS011;63131;52.298;8.056;2023-09-07T08:09:34;8.63;;;3.10;;
74624;SDS011;63131;52.298;8.056;2023-09-07T08:13:05;9.45;;;3.50;;
74624;SDS011;63131;52.298;8.056;2023-09-07T08:15:33;11.45;;;3.70;;
74624;SDS011;63131;52.298;8.056;2023-09-07T08:18:57;9.63;;;4.10;;
74624;SDS011;63131;52.298;8.056;2023-09-07T08:22:21;8.52;;;3.67;;
74624;SDS011;63131;52.298;8.056;2023-09-07T08:25:46;8.25;;;3.05;;
74624;SDS011;63131;52.298;8.056;2023-09-07T08:28:52;7.55;;;2.97;;
74624;SDS011;63131;52.298;8.056;2023-09-07T08:32:17;8.70;;;3.30;;
74624;SDS011;63131;52.298;8.056;2023-09-07T08:35:41;8.15;;;3.47;;
74624;SDS011;63131;52.298;8.056;2023-09-07T08:39:05;8.75;;;3.22;;
74624;SDS011;63131;52.298;8.056;2023-09-07T08:42:32;8.13;;;3.40;;
74624;SDS011;63131;52.298;8.056;2023-09-07T08:45:55;11.38;;;4.07;;
74624;SDS011;63131;52.298;8.056;2023-09-07T08:49:21;9.38;;;3.55;;
74624;SDS011;63131;52.298;8.056;2023-09-07T08:52:03;8.50;;;3.80;;
74624;SDS011;63131;52.298;8.056;2023-09-07T08:54:49;7.82;;;3.67;;
74624;SDS011;63131;52.298;8.056;2023-09-07T08:58:13;9.63;;;3.85;;
74624;SDS011;63131;52.298;8.056;2023-09-07T09:01:37;7.93;;;3.33;;
74624;SDS011;63131;52.298;8.056;2023-09-07T09:05:02;8.23;;;4.00;;
74624;SDS011;63131;52.298;8.056;2023-09-07T09:08:26;8.90;;;3.53;;
74624;SDS011;63131;52.298;8.056;2023-09-07T09:11:50;7.38;;;3.60;;
74624;SDS011;63131;52.298;8.056;2023-09-07T09:15:14;9.07;;;3.88;;
74624;SDS011;63131;52.298;8.056;2023-09-07T09:18:52;8.32;;;3.22;;
74624;SDS011;63131;52.298;8.056;2023-09-07T09:22:40;9.32;;;3.58;;
74624;SDS011;63131;52.298;8.056;2023-09-07T09:26:04;8.93;;;3.97;;
74624;SDS011;63131;52.298;8.056;2023-09-07T09:29:29;8.27;;;3.47;;
74624;SDS011;63131;52.298;8.056;2023-09-07T09:32:48;7.95;;;4.03;;
74624;SDS011;63131;52.298;8.056;2023-09-07T09:36:18;8.15;;;3.90;;
74624;SDS011;63131;52.298;8.056;2023-09-07T09:39:44;8.02;;;4.45;;
74624;SDS011;63131;52.298;8.056;2023-09-07T09:43:12;11.55;;;4.25;;
74624;SDS011;63131;52.298;8.056;2023-09-07T09:46:31;9.85;;;4.22;;
74624;SDS011;63131;52.298;8.056;2023-09-07T09:49:21;8.32;;;3.33;;
74624;SDS011;63131;52.298;8.056;2023-09-07T09:52:45;9.23;;;4.45;;
74624;SDS011;63131;52.298;8.056;2023-09-07T09:55:45;8.40;;;3.95;;
74624;SDS011;63131;52.298;8.056;2023-09-07T09:58:14;11.25;;;4.05;;
74624;SDS011;63131;52.298;8.056;2023-09-07T10:00:43;7.80;;;3.33;;
74624;SDS011;63131;52.298;8.056;2023-09-07T10:17:45;8.20;;;3.67;;
74624;SDS011;63131;52.298;8.056;2023-09-07T10:20:52;9.15;;;3.40;;
74624;SDS011;63131;52.298;8.056;2023-09-07T10:24:56;8.30;;;5.47;;
74624;SDS011;63131;52.298;8.056;2023-09-07T10:28:48;8.30;;;3.38;;
74624;SDS011;63131;52.298;8.056;2023-09-07T10:32:22;7.53;;;3.47;;
74624;SDS011;63131;52.298;8.056;2023-09-07T10:35:47;7.88;;;3.55;;
74624;SDS011;63131;52.298;8.056;2023-09-07T10:39:11;7.93;;;3.67;;
74624;SDS011;63131;52.298;8.056;2023-09-07T10:41:53;8.60;;;3.50;;
74624;SDS011;63131;52.298;8.056;2023-09-07T10:45:25;8.02;;;3.92;;
74624;SDS011;63131;52.298;8.056;2023-09-07T10:48:51;9.07;;;3.70;;
74624;SDS011;63131;52.298;8.056;2023-09-07T10:52:15;8.27;;;3.67;;
74624;SDS011;63131;52.298;8.056;2023-09-07T10:55:39;8.15;;;3.72;;
74624;SDS011;63131;52.298;8.056;2023-09-07T10:59:03;9.20;;;3.58;;
74624;SDS011;63131;52.298;8.056;2023-09-07T11:02:28;10.32;;;3.55;;
74624;SDS011;63131;52.298;8.056;2023-09-07T11:05:57;8.77;;;4.50;;
74624;SDS011;63131;52.298;8.056;2023-09-07T11:09:22;7.45;;;3.40;;
74624;SDS011;63131;52.298;8.056;2023-09-07T11:12:46;7.93;;;3.95;;
74624;SDS011;63131;52.298;8.056;2023-09-07T11:16:11;10.32;;;4.10;;
74624;SDS011;63131;52.298;8.056;2023-09-07T11:19:35;7.75;;;4.05;;
74624;SDS011;63131;52.298;8.056;2023-09-07T11:22:59;7.68;;;3.42;;
74624;SDS011;63131;52.298;8.056;2023-09-07T11:26:23;8.15;;;3.30;;
74624;SDS011;63131;52.298;8.056;2023-09-07T11:29:50;7.22;;;3.13;;
74624;SDS011;63131;52.298;8.056;2023-09-07T11:32:22;7.78;;;3.33;;
74624;SDS011;63131;52.298;8.056;2023-09-07T11:34:59;8.95;;;3.42;;
74624;SDS011;63131;52.298;8.056;2023-09-07T11:37:25;7.85;;;3.25;;
74624;SDS011;63131;52.298;8.056;2023-09-07T11:39:52;7.93;;;3.60;;
74624;SDS011;63131;52.298;8.056;2023-09-07T11:42:20;8.82;;;3.63;;
74624;SDS011;63131;52.298;8.056;2023-09-07T11:44:45;9.50;;;4.63;;
74624;SDS011;63131;52.298;8.056;2023-09-07T11:47:11;7.15;;;3.72;;
74624;SDS011;63131;52.298;8.056;2023-09-07T11:49:48;7.45;;;3.88;;
74624;SDS011;63131;52.298;8.056;2023-09-07T11:52:16;9.95;;;3.63;;
74624;SDS011;63131;52.298;8.056;2023-09-07T11:54:41;7.85;;;3.60;;
74624;SDS011;63131;52.298;8.056;2023-09-07T11:57:06;7.22;;;3.30;;
74624;SDS011;63131;52.298;8.056;2023-09-07T11:59:32;9.40;;;4.03;;
74624;SDS011;63131;52.298;8.056;2023-09-07T12:01:59;8.20;;;3.95;;
74624;SDS011;63131;52.298;8.056;2023-09-07T12:04:24;8.25;;;3.80;;
74624;SDS011;63131;52.298;8.056;2023-09-07T12:06:49;8.07;;;3.75;;
74624;SDS011;63131;52.298;8.056;2023-09-07T12:09:15;9.70;;;3.80;;
74624;SDS011;63131;52.298;8.056;2023-09-07T12:11:42;7.55;;;3.95;;
74624;SDS011;63131;52.298;8.056;2023-09-07T12:14:08;9.60;;;3.55;;
74624;SDS011;63131;52.298;8.056;2023-09-07T12:16:34;8.55;;;3.97;;
74624;SDS011;63131;52.298;8.056;2023-09-07T12:18:59;8.55;;;3.47;;
74624;SDS011;63131;52.298;8.056;2023-09-07T12:21:24;8.50;;;3.30;;
74624;SDS011;63131;52.298;8.056;2023-09-07T12:23:50;8.23;;;3.95;;
74624;SDS011;63131;52.298;8.056;2023-09-07T12:26:15;7.68;;;3.00;;
74624;SDS011;63131;52.298;8.056;2023-09-07T12:28:42;7.85;;;4.10;;
74624;SDS011;63131;52.298;8.056;2023-09-07T12:31:07;9.23;;;3.83;;
74624;SDS011;63131;52.298;8.056;2023-09-07T12:33:32;7.93;;;3.67;;
74624;SDS011;63131;52.298;8.056;2023-09-07T12:35:58;8.43;;;3.45;;
74624;SDS011;63131;52.298;8.056;2023-09-07T12:38:24;7.70;;;3.50;;
74624;SDS011;63131;52.298;8.056;2023-09-07T12:40:53;7.40;;;4.13;;
74624;SDS011;63131;52.298;8.056;2023-09-07T12:43:19;8.23;;;3.53;;
74624;SDS011;63131;52.298;8.056;2023-09-07T12:45:45;7.03;;;3.35;;
74624;SDS011;63131;52.298;8.056;2023-09-07T12:48:11;7.28;;;4.03;;
74624;SDS011;63131;52.298;8.056;2023-09-07T12:50:36;7.57;;;4.10;;
74624;SDS011;63131;52.298;8.056;2023-09-07T12:53:02;8.07;;;4.15;;
74624;SDS011;63131;52.298;8.056;2023-09-07T12:55:27;7.00;;;3.88;;
74624;SDS011;63131;52.298;8.056;2023-09-07T12:57:54;8.60;;;4.43;;
74624;SDS011;63131;52.298;8.056;2023-09-07T13:00:20;8.70;;;4.38;;
74624;SDS011;63131;52.298;8.056;2023-09-07T13:02:47;8.70;;;3.70;;
74624;SDS011;63131;52.298;8.056;2023-09-07T13:05:12;9.82;;;4.03;;
74624;SDS011;63131;52.298;8.056;2023-09-07T13:07:37;9.93;;;4.10;;
74624;SDS011;63131;52.298;8.056;2023-09-07T13:10:04;8.45;;;4.20;;
74624;SDS011;63131;52.298;8.056;2023-09-07T13:12:33;7.40;;;3.55;;
74624;SDS011;63131;52.298;8.056;2023-09-07T13:14:58;6.78;;;3.35;;
74624;SDS011;63131;52.298;8.056;2023-09-07T13:17:24;8.05;;;3.92;;
74624;SDS011;63131;52.298;8.056;2023-09-07T13:19:51;8.52;;;3.90;;
74624;SDS011;63131;52.298;8.056;2023-09-07T13:22:20;7.70;;;4.07;;
74624;SDS011;63131;52.298;8.056;2023-09-07T13:24:45;8.80;;;3.67;;
74624;SDS011;63131;52.298;8.056;2023-09-07T13:27:11;8.88;;;4.13;;
74624;SDS011;63131;52.298;8.056;2023-09-07T13:29:36;9.38;;;4.53;;
74624;SDS011;63131;52.298;8.056;2023-09-07T13:32:02;7.55;;;4.00;;
74624;SDS011;63131;52.298;8.056;2023-09-07T13:34:28;7.85;;;3.63;;
74624;SDS011;63131;52.298;8.056;2023-09-07T13:36:54;8.13;;;3.50;;
74624;SDS011;63131;52.298;8.056;2023-09-07T13:39:19;8.02;;;3.70;;
74624;SDS011;63131;52.298;8.056;2023-09-07T13:41:45;8.65;;;4.90;;
74624;SDS011;63131;52.298;8.056;2023-09-07T13:44:11;8.52;;;3.92;;
74624;SDS011;63131;52.298;8.056;2023-09-07T13:46:38;7.82;;;3.60;;
74624;SDS011;63131;52.298;8.056;2023-09-07T13:49:04;8.32;;;3.35;;
74624;SDS011;63131;52.298;8.056;2023-09-07T13:51:29;8.13;;;3.83;;
74624;SDS011;63131;52.298;8.056;2023-09-07T13:54:00;7.28;;;3.78;;
74624;SDS011;63131;52.298;8.056;2023-09-07T13:56:25;9.23;;;3.47;;
74624;SDS011;63131;52.298;8.056;2023-09-07T13:58:51;7.60;;;4.07;;
74624;SDS011;63131;52.298;8.056;2023-09-07T14:01:16;8.45;;;3.92;;
74624;SDS011;63131;52.298;8.056;2023-09-07T14:03:41;7.47;;;3.88;;
74624;SDS011;63131;52.298;8.056;2023-09-07T14:06:07;7.32;;;3.95;;
74624;SDS011;63131;52.298;8.056;2023-09-07T14:08:32;8.43;;;4.03;;
74624;SDS011;63131;52.298;8.056;2023-09-07T14:10:59;8.35;;;3.72;;
74624;SDS011;63131;52.298;8.056;2023-09-07T14:13:25;7.13;;;3.63;;
74624;SDS011;63131;52.298;8.056;2023-09-07T14:15:50;6.63;;;3.08;;
74624;SDS011;63131;52.298;8.056;2023-09-07T14:18:16;7.35;;;3.50;;
74624;SDS011;63131;52.298;8.056;2023-09-07T14:20:41;7.68;;;3.83;;
74624;SDS011;63131;52.298;8.056;2023-09-07T14:23:08;7.05;;;2.85;;
74624;SDS011;63131;52.298;8.056;2023-09-07T14:25:34;7.25;;;3.40;;
74624;SDS011;63131;52.298;8.056;2023-09-07T14:27:59;7.55;;;3.30;;
74624;SDS011;63131;52.298;8.056;2023-09-07T14:30:25;8.35;;;3.38;;
74624;SDS011;63131;52.298;8.056;2023-09-07T14:32:52;7.65;;;3.50;;
74624;SDS011;63131;52.298;8.056;2023-09-07T14:35:17;8.43;;;3.38;;
74624;SDS011;63131;52.298;8.056;2023-09-07T14:37:43;7.30;;;3.30;;
74624;SDS011;63131;52.298;8.056;2023-09-07T14:40:08;7.88;;;3.70;;
74624;SDS011;63131;52.298;8.056;2023-09-07T14:42:34;7.30;;;3.28;;
74624;SDS011;63131;52.298;8.056;2023-09-07T14:45:01;7.57;;;3.38;;
74624;SDS011;63131;52.298;8.056;2023-09-07T14:47:28;6.40;;;2.90;;
74624;SDS011;63131;52.298;8.056;2023-09-07T14:49:56;8.38;;;3.97;;
74624;SDS011;63131;52.298;8.056;2023-09-07T14:52:21;8.05;;;3.65;;
74624;SDS011;63131;52.298;8.056;2023-09-07T14:54:49;7.07;;;3.45;;
74624;SDS011;63131;52.298;8.056;2023-09-07T14:57:16;7.07;;;3.00;;
74624;SDS011;63131;52.298;8.056;2023-09-07T14:59:42;7.82;;;3.60;;
74624;SDS011;63131;52.298;8.056;2023-09-07T15:02:07;8.32;;;3.50;;
74624;SDS011;63131;52.298;8.056;2023-09-07T15:04:33;7.13;;;3.45;;
74624;SDS011;63131;52.298;8.056;2023-09-07T15:06:58;7.43;;;3.53;;
74624;SDS011;63131;52.298;8.056;2023-09-07T15:09:24;7.28;;;3.40;;
74624;SDS011;63131;52.298;8.056;2023-09-07T15:11:50;7.50;;;3.22;;
74624;SDS011;63131;52.298;8.056;2023-09-07T15:14:16;7.05;;;3.03;;
74624;SDS011;63131;52.298;8.056;2023-09-07T15:16:42;7.70;;;4.07;;
74624;SDS011;63131;52.298;8.056;2023-09-07T15:19:07;7.63;;;4.15;;
74624;SDS011;63131;52.298;8.056;2023-09-07T15:21:33;7.82;;;3.78;;
74624;SDS011;63131;52.298;8.056;2023-09-07T15:23:58;9.07;;;4.65;;
74624;SDS011;63131;52.298;8.056;2023-09-07T15:26:23;8.27;;;4.18;;
74624;SDS011;63131;52.298;8.056;2023-09-07T15:28:50;7.80;;;3.97;;
74624;SDS011;63131;52.298;8.056;2023-09-07T15:31:16;7.47;;;4.10;;
74624;SDS011;63131;52.298;8.056;2023-09-07T15:33:41;7.72;;;3.65;;
74624;SDS011;63131;52.298;8.056;2023-09-07T15:36:07;7.80;;;4.35;;
74624;SDS011;63131;52.298;8.056;2023-09-07T15:38:33;8.43;;;3.90;;
74624;SDS011;63131;52.298;8.056;2023-09-07T15:40:58;10.23;;;4.40;;
74624;SDS011;63131;52.298;8.056;2023-09-07T15:43:24;7.22;;;4.00;;
74624;SDS011;63131;52.298;8.056;2023-09-07T15:45:50;8.73;;;4.20;;
74624;SDS011;63131;52.298;8.056;2023-09-07T15:48:15;7.63;;;3.90;;
74624;SDS011;63131;52.298;8.056;2023-09-07T15:50:43;8.95;;;4.40;;
74624;SDS011;63131;52.298;8.056;2023-09-07T15:53:08;8.02;;;4.25;;
74624;SDS011;63131;52.298;8.056;2023-09-07T15:55:34;8.05;;;3.50;;
74624;SDS011;63131;52.298;8.056;2023-09-07T15:58:00;8.40;;;3.53;;
74624;SDS011;63131;52.298;8.056;2023-09-07T16:00:26;8.00;;;4.15;;
74624;SDS011;63131;52.298;8.056;2023-09-07T16:02:51;9.57;;;4.30;;
74624;SDS011;63131;52.298;8.056;2023-09-07T16:05:17;8.52;;;4.82;;
74624;SDS011;63131;52.298;8.056;2023-09-07T16:07:42;9.63;;;5.18;;
74624;SDS011;63131;52.298;8.056;2023-09-07T16:10:08;8.55;;;4.80;;
74624;SDS011;63131;52.298;8.056;2023-09-07T16:12:35;8.13;;;4.30;;
74624;SDS011;63131;52.298;8.056;2023-09-07T16:15:01;8.77;;;4.20;;
74624;SDS011;63131;52.298;8.056;2023-09-07T16:17:26;11.80;;;4.90;;
74624;SDS011;63131;52.298;8.056;2023-09-07T16:19:52;8.88;;;4.70;;
74624;SDS011;63131;52.298;8.056;2023-09-07T16:22:17;8.00;;;3.90;;
74624;SDS011;63131;52.298;8.056;2023-09-07T16:24:43;8.13;;;4.72;;
74624;SDS011;63131;52.298;8.056;2023-09-07T16:27:08;9.32;;;4.97;;
74624;SDS011;63131;52.298;8.056;2023-09-07T16:29:33;8.20;;;5.22;;
74624;SDS011;63131;52.298;8.056;2023-09-07T16:31:59;8.15;;;5.72;;
74624;SDS011;63131;52.298;8.056;2023-09-07T16:34:24;8.07;;;4.88;;
74624;SDS011;63131;52.298;8.056;2023-09-07T16:36:52;7.88;;;4.35;;
74624;SDS011;63131;52.298;8.056;2023-09-07T16:39:18;11.52;;;4.15;;
74624;SDS011;63131;52.298;8.056;2023-09-07T16:41:43;8.15;;;4.38;;
74624;SDS011;63131;52.298;8.056;2023-09-07T16:44:09;7.80;;;4.63;;
74624;SDS011;63131;52.298;8.056;2023-09-07T16:46:34;9.73;;;6.05;;
74624;SDS011;63131;52.298;8.056;2023-09-07T16:49:00;7.38;;;4.10;;
74624;SDS011;63131;52.298;8.056;2023-09-07T16:51:25;8.43;;;4.32;;
74624;SDS011;63131;52.298;8.056;2023-09-07T16:53:50;9.45;;;5.15;;
74624;SDS011;63131;52.298;8.056;2023-09-07T16:56:16;9.52;;;5.07;;
74624;SDS011;63131;52.298;8.056;2023-09-07T16:58:42;8.15;;;4.07;;
74624;SDS011;63131;52.298;8.056;2023-09-07T17:01:08;8.15;;;4.60;;
74624;SDS011;63131;52.298;8.056;2023-09-07T17:03:33;10.73;;;6.03;;
74624;SDS011;63131;52.298;8.056;2023-09-07T17:05:59;10.07;;;6.70;;
74624;SDS011;63131;52.298;8.056;2023-09-07T17:08:24;8.52;;;5.15;;
74624;SDS011;63131;52.298;8.056;2023-09-07T17:10:50;8.32;;;4.78;;
74624;SDS011;63131;52.298;8.056;2023-09-07T17:13:15;8.35;;;4.60;;
74624;SDS011;63131;52.298;8.056;2023-09-07T17:15:42;8.30;;;4.22;;
74624;SDS011;63131;52.298;8.056;2023-09-07T17:18:08;8.57;;;4.80;;
74624;SDS011;63131;52.298;8.056;2023-09-07T17:20:37;8.27;;;4.75;;
74624;SDS011;63131;52.298;8.056;2023-09-07T17:23:03;9.20;;;5.13;;
74624;SDS011;63131;52.298;8.056;2023-09-07T17:25:29;8.57;;;4.40;;
74624;SDS011;63131;52.298;8.056;2023-09-07T17:27:57;8.60;;;4.22;;
74624;SDS011;63131;52.298;8.056;2023-09-07T17:30:23;8.45;;;4.90;;
74624;SDS011;63131;52.298;8.056;2023-09-07T17:32:49;8.43;;;4.78;;
74624;SDS011;63131;52.298;8.056;2023-09-07T17:35:15;9.75;;;4.07;;
74624;SDS011;63131;52.298;8.056;2023-09-07T17:37:40;8.65;;;4.78;;
74624;SDS011;63131;52.298;8.056;2023-09-07T17:40:06;8.13;;;4.88;;
74624;SDS011;63131;52.298;8.056;2023-09-07T17:42:33;8.65;;;4.90;;
74624;SDS011;63131;52.298;8.056;2023-09-07T17:44:58;8.05;;;5.15;;
74624;SDS011;63131;52.298;8.056;2023-09-07T17:47:23;8.57;;;4.35;;